createdAt,value
2023-05-23T00:00:54.101Z,1020
2023-05-23T00:02:37.486Z,1014.8
2023-05-23T00:04:20.932Z,1013.2
2023-05-23T00:09:30.148Z,1003.4
2023-05-23T00:11:13.533Z,1000.1
2023-05-23T00:12:56.928Z,995.6
2023-05-23T00:14:40.333Z,993.7
2023-05-23T00:16:23.741Z,992.1
2023-05-23T00:18:07.120Z,986.3
2023-05-23T00:19:50.511Z,980.8
2023-05-23T00:23:17.007Z,972.4
2023-05-23T00:25:00.386Z,970
2023-05-23T00:26:43.771Z,969.5
2023-05-23T00:28:27.184Z,967.8
2023-05-23T00:30:10.574Z,965.4
2023-05-23T00:31:53.992Z,963.3
2023-05-23T00:33:37.363Z,963
2023-05-23T00:35:20.773Z,960.4
2023-05-23T00:37:04.491Z,956.7
2023-05-23T00:38:47.873Z,952.7
2023-05-23T00:40:31.260Z,950.7
2023-05-23T00:42:14.654Z,946.7
2023-05-23T05:48:53.626Z,715.4
2023-05-23T06:33:42.240Z,696.8
2023-05-23T07:11:35.837Z,677.4
2023-05-23T07:21:55.700Z,697.4
2023-05-23T07:30:32.689Z,668.5
2023-05-23T07:32:16.836Z,665
2023-05-23T07:40:52.729Z,651.5
2023-05-23T07:44:19.521Z,658.2
2023-05-23T07:49:29.717Z,682.3
2023-05-23T07:58:06.414Z,697.6
2023-05-23T08:22:14.636Z,775.1
2023-05-23T08:25:40.705Z,777.1
2023-05-23T08:30:50.940Z,774
2023-05-23T08:35:19.151Z,770.5
2023-05-23T08:41:00.507Z,781.6
2023-05-23T08:46:33.405Z,778.7
2023-05-23T08:51:22.007Z,776.2
2023-05-23T08:53:50.298Z,776.5
2023-05-23T08:57:18.096Z,775.9
2023-05-23T09:01:15.181Z,771.1
2023-05-23T09:16:20.360Z,781
2023-05-23T09:21:16.968Z,786.9
2023-05-23T09:24:31.296Z,792.8
2023-05-23T09:27:59.084Z,792.2
2023-05-23T09:36:52.782Z,796.1
2023-05-23T09:39:21.085Z,795.4
2023-05-23T09:49:29.671Z,793.3
2023-05-23T09:53:26.782Z,792.5
2023-05-23T09:54:26.257Z,805.3
2023-05-23T10:06:01.409Z,857.7
2023-05-23T10:09:29.172Z,901.5
2023-05-23T10:13:26.349Z,909.7
2023-05-23T10:16:54.078Z,924.6
2023-05-23T10:18:21.421Z,926.2
2023-05-23T10:19:50.365Z,928.2
2023-05-23T10:21:33.760Z,933
2023-05-23T10:23:17.158Z,938.5
2023-05-23T10:25:00.553Z,939.7
2023-05-23T10:26:43.971Z,939.2
2023-05-23T10:31:53.206Z,939
2023-05-23T10:33:36.607Z,935.5
2023-05-23T10:35:19.992Z,930.1
2023-05-23T10:37:03.389Z,917.6
2023-05-23T10:38:46.793Z,904
2023-05-23T10:40:30.174Z,801.2
2023-05-23T10:42:13.821Z,779.1
2023-05-23T10:47:22.833Z,862.3
2023-05-23T10:49:06.218Z,843.8
2023-05-23T10:50:49.605Z,834.1
2023-05-23T10:52:33.010Z,822.4
2023-05-23T10:54:16.388Z,812.1
2023-05-23T10:55:59.781Z,794.2
2023-05-23T10:57:43.190Z,758.7
2023-05-23T11:02:52.442Z,581.6
2023-05-23T11:04:35.827Z,556.2
2023-05-23T11:06:19.231Z,538
2023-05-23T11:08:02.610Z,524.1
2023-05-23T11:09:46.006Z,516.1
2023-05-23T11:11:29.427Z,508.5
2023-05-23T11:13:12.809Z,496.1
2023-05-23T11:14:56.203Z,488.1
2023-05-23T11:18:22.685Z,488.4
2023-05-23T11:20:06.071Z,487.1
2023-05-23T11:21:49.463Z,481
2023-05-23T11:23:32.875Z,474
2023-05-23T11:25:16.268Z,465.1
2023-05-23T11:26:59.654Z,452.6
2023-05-23T11:28:43.055Z,442.3
2023-05-23T11:30:26.438Z,441.1
2023-05-23T11:33:52.941Z,431.4
2023-05-23T11:35:36.322Z,432.6
2023-05-23T11:37:19.709Z,439.6
2023-05-23T11:39:03.114Z,444.4
2023-05-23T11:40:46.506Z,446.5
2023-05-23T11:42:29.898Z,450.5
2023-05-23T11:44:13.342Z,452.5
2023-05-23T11:45:56.738Z,457.1
2023-05-23T11:49:23.160Z,467.2
2023-05-23T11:51:06.565Z,473.7
2023-05-23T11:52:49.956Z,482
2023-05-23T11:54:33.352Z,488.1
2023-05-23T11:56:16.750Z,494.8
2023-05-23T11:58:00.140Z,499.1
2023-05-23T11:59:43.537Z,504.7
2023-05-23T12:01:26.986Z,510.3
2023-05-23T12:04:53.453Z,520.3
2023-05-23T12:06:36.893Z,521.2
2023-05-23T12:08:20.426Z,523.7
2023-05-23T12:10:03.698Z,529.1
2023-05-23T12:11:47.002Z,534.3
2023-05-23T12:13:30.380Z,539.2
2023-05-23T12:15:13.954Z,542.4
2023-05-23T12:16:57.410Z,544.5
2023-05-23T12:22:06.416Z,552.8
2023-05-23T12:23:49.813Z,559.1
2023-05-23T12:25:33.225Z,563.8
2023-05-23T12:27:16.611Z,568.4
2023-05-23T12:29:00.017Z,572.8
2023-05-23T12:30:43.411Z,577.2
2023-05-23T12:32:26.812Z,579.8
2023-05-23T12:34:10.251Z,581.2
2023-05-23T12:37:36.745Z,589.9
2023-05-23T12:39:20.068Z,595.3
2023-05-23T12:41:03.466Z,600.5
2023-05-23T12:42:46.854Z,605
2023-05-23T12:44:30.302Z,607
2023-05-23T12:46:13.722Z,608.4
2023-05-23T12:47:57.084Z,612.3
2023-05-23T12:49:40.489Z,613.2
2023-05-23T12:53:06.993Z,628.4
2023-05-23T12:54:50.352Z,630.6
2023-05-23T12:56:33.771Z,634
2023-05-23T12:58:17.149Z,638.6
2023-05-23T13:00:00.539Z,643
2023-05-23T13:01:43.936Z,644.7
2023-05-23T13:03:27.334Z,647.8
2023-05-23T13:05:10.679Z,652.1
2023-05-23T13:06:54.402Z,659.7
2023-05-23T13:08:37.822Z,667.1
2023-05-23T13:10:21.197Z,672.2
2023-05-23T13:12:04.712Z,676.5
2023-05-23T13:13:48.121Z,679.4
2023-05-23T13:15:31.457Z,679.2
2023-05-23T13:17:14.781Z,680.3
2023-05-23T13:18:58.164Z,681
2023-05-23T13:22:24.666Z,681
2023-05-23T13:24:08.041Z,682
2023-05-23T13:25:51.422Z,686
2023-05-23T13:27:34.835Z,688.6
2023-05-23T13:29:18.262Z,693.3
2023-05-23T13:31:01.607Z,695.5
2023-05-23T13:32:45.011Z,700.8
2023-05-23T13:34:28.409Z,703
2023-05-23T13:36:12.122Z,706.2
2023-05-23T13:37:55.530Z,708.4
2023-05-23T13:39:38.908Z,709.5
2023-05-23T13:41:22.299Z,709.4
2023-05-23T13:43:05.701Z,710.1
2023-05-23T13:44:49.087Z,710.4
2023-05-23T13:46:32.494Z,716.1
2023-05-23T13:48:15.886Z,717.8
2023-05-23T13:49:59.582Z,717.5
2023-05-23T13:51:42.984Z,717.8
2023-05-23T13:53:26.380Z,716.2
2023-05-23T13:55:09.797Z,714.5
2023-05-23T13:56:53.173Z,712.6
2023-05-23T13:58:36.571Z,716.2
2023-05-23T14:00:19.978Z,718.8
2023-05-23T14:05:29.194Z,733.3
2023-05-23T14:07:12.593Z,735.7
2023-05-23T14:08:56.004Z,736.2
2023-05-23T14:10:39.397Z,738
2023-05-23T14:12:22.795Z,741
2023-05-23T14:14:06.196Z,741.8
2023-05-23T14:15:49.584Z,750
2023-05-23T14:19:16.090Z,759.3
2023-05-23T14:20:59.453Z,755.6
2023-05-23T14:22:43.102Z,755.6
2023-05-23T14:24:26.302Z,756.3
2023-05-23T14:26:09.617Z,756.5
2023-05-23T14:27:53.064Z,759.5
2023-05-23T14:29:36.433Z,758.6
2023-05-23T14:34:45.669Z,776.5
2023-05-23T14:36:29.086Z,793
2023-05-23T14:38:12.488Z,799.6
2023-05-23T14:39:55.865Z,802.3
2023-05-23T14:41:39.242Z,806.1
2023-05-23T14:43:22.652Z,808
2023-05-23T14:45:06.060Z,807.2
2023-05-23T14:48:32.550Z,814.3
2023-05-23T14:50:16.102Z,829.1
2023-05-23T14:51:59.415Z,836.5
2023-05-23T14:53:42.716Z,847.6
2023-05-23T14:55:26.112Z,852.5
2023-05-23T14:57:09.509Z,856.8
2023-05-23T14:58:52.899Z,863.4
2023-05-23T15:00:36.285Z,867.3
2023-05-23T15:04:02.770Z,879
2023-05-23T15:05:46.157Z,884
2023-05-23T15:07:29.550Z,890.2
2023-05-23T15:09:12.962Z,899.5
2023-05-23T15:10:56.350Z,905.1
2023-05-23T15:12:39.784Z,910.8
2023-05-23T15:14:23.157Z,918.2
2023-05-23T15:17:49.619Z,930.8
2023-05-23T15:19:33.025Z,936.1
2023-05-23T15:21:16.479Z,942.7
2023-05-23T15:22:59.802Z,953
2023-05-23T15:24:43.234Z,959.5
2023-05-23T15:26:26.614Z,964.2
2023-05-23T15:28:09.975Z,966.1
2023-05-23T15:31:36.477Z,970
2023-05-23T15:33:19.849Z,976.3
2023-05-23T15:35:03.283Z,979.4
2023-05-23T15:36:46.654Z,981.3
2023-05-23T15:38:30.039Z,987.4
2023-05-23T15:40:13.519Z,987.7
2023-05-23T15:41:56.844Z,988.1
2023-05-23T15:43:40.367Z,989.4
2023-05-23T15:45:23.946Z,989.9
2023-05-23T15:47:07.379Z,990.3
2023-05-23T15:48:50.801Z,992.7
2023-05-23T15:50:34.120Z,993.1
2023-05-23T15:52:17.648Z,997.2
2023-05-23T15:54:00.980Z,1000
2023-05-23T15:55:44.317Z,1000.4
2023-05-23T15:57:27.772Z,1002.6
2023-05-23T15:59:11.445Z,1001.6
2023-05-23T16:00:54.809Z,1001.7
2023-05-23T16:02:38.271Z,1002.1
2023-05-23T16:04:21.741Z,1006.5
2023-05-23T16:06:05.000Z,1009.4
2023-05-23T16:07:48.462Z,1013.7
2023-05-23T16:09:31.813Z,1015
2023-05-23T16:11:15.239Z,1016.5
2023-05-23T16:14:41.724Z,1023.6
2023-05-23T16:16:25.062Z,1027.3
2023-05-23T16:18:08.485Z,1031.8
2023-05-23T16:19:51.847Z,1036.8
2023-05-23T16:21:35.298Z,1038.7
2023-05-23T16:23:18.637Z,1041.7
2023-05-23T16:25:02.050Z,1042.8
2023-05-23T16:28:28.621Z,1051.3
2023-05-23T16:30:11.989Z,1052.2
2023-05-23T16:31:55.299Z,1055
2023-05-23T16:33:38.729Z,1060.3
2023-05-23T16:35:22.246Z,1062.1
2023-05-23T16:37:05.525Z,1062.8
2023-05-23T16:38:48.893Z,1065.3
2023-05-23T16:43:58.282Z,1073.4
2023-05-23T16:45:41.517Z,1075.2
2023-05-23T16:47:25.094Z,1080.4
2023-05-23T16:49:08.347Z,1078.3
2023-05-23T16:50:51.869Z,1080
2023-05-23T16:52:35.256Z,1078.7
2023-05-23T16:54:18.559Z,1080.7
2023-05-23T16:56:02.253Z,1082.8
2023-05-23T16:57:45.594Z,1083
2023-05-23T16:59:28.998Z,1084.8
2023-05-23T17:01:12.435Z,1083
2023-05-23T17:02:55.798Z,1084.6
2023-05-23T17:04:39.176Z,1085.1
2023-05-23T17:06:22.577Z,1087.3
2023-05-23T17:11:31.812Z,1075.8
2023-05-23T17:13:15.216Z,1073.6
2023-05-23T17:14:58.624Z,1075.5
2023-05-23T17:16:42.010Z,1078.6
2023-05-23T17:18:25.474Z,1076.8
2023-05-23T17:20:08.786Z,1074.2
2023-05-23T17:21:52.204Z,1069.6
2023-05-23T17:25:18.679Z,1071.3
2023-05-23T17:27:02.069Z,1067.8
2023-05-23T17:28:45.550Z,1066.6
2023-05-23T17:30:28.845Z,1066.2
2023-05-23T17:32:12.261Z,1066.1
2023-05-23T17:33:55.679Z,1069
2023-05-23T17:35:39.036Z,1075.7
2023-05-23T17:39:05.521Z,1082.9
2023-05-23T17:40:48.915Z,1085.4
2023-05-23T17:42:32.391Z,1088.7
2023-05-23T17:44:15.721Z,1087.2
2023-05-23T17:45:59.112Z,1089.1
2023-05-23T17:47:42.524Z,1088.2
2023-05-23T17:49:25.903Z,1087.6
2023-05-23T17:51:09.362Z,1088.2
2023-05-23T17:52:53.004Z,1094.2
2023-05-23T17:54:36.436Z,1095.5
2023-05-23T17:56:19.788Z,1096.1
2023-05-23T17:58:03.184Z,1094.5
2023-05-23T17:59:46.583Z,1091.3
2023-05-23T18:01:30.010Z,1083.7
2023-05-23T18:03:13.450Z,1080.7
2023-05-23T18:08:22.625Z,1087.7
2023-05-23T18:10:06.000Z,1090.7
2023-05-23T18:11:49.427Z,1093.4
2023-05-23T18:13:32.811Z,1094.8
2023-05-23T18:15:16.216Z,1096
2023-05-23T18:16:59.581Z,1097.5
2023-05-23T18:18:43.082Z,1097.7
2023-05-23T18:22:09.483Z,1095.1
2023-05-23T18:23:52.855Z,1094.5
2023-05-23T18:25:36.268Z,1095.7
2023-05-23T18:27:19.663Z,1097.4
2023-05-23T18:29:03.035Z,1098.2
2023-05-23T18:30:46.454Z,1097.1
2023-05-23T18:32:29.844Z,1096.1
2023-05-23T18:37:39.089Z,1054.1
2023-05-23T18:39:22.479Z,950.6
2023-05-23T18:41:05.894Z,911.2
2023-05-23T18:42:49.255Z,898.2
2023-05-23T18:44:32.696Z,886.3
2023-05-23T18:46:16.134Z,876.4
2023-05-23T18:47:59.516Z,835.4
2023-05-23T18:51:25.989Z,803
2023-05-23T18:53:09.375Z,816.5
2023-05-23T18:54:52.786Z,837
2023-05-23T18:56:36.209Z,858.3
2023-05-23T18:58:19.587Z,871.6
2023-05-23T19:00:02.975Z,883.5
2023-05-23T19:01:46.353Z,900
2023-05-23T19:03:29.784Z,911.2
2023-05-23T19:05:13.553Z,912.1
2023-05-23T19:06:56.961Z,917.6
2023-05-23T19:08:40.253Z,920.1
2023-05-23T19:10:23.795Z,918.5
2023-05-23T19:12:07.023Z,913.5
2023-05-23T19:13:50.458Z,911.4
2023-05-23T19:15:33.908Z,906.8
2023-05-23T19:20:43.087Z,904.6
2023-05-23T19:22:26.578Z,911.1
2023-05-23T19:24:09.880Z,919.8
2023-05-23T19:25:53.361Z,923.8
2023-05-23T19:27:36.643Z,926
2023-05-23T19:29:20.046Z,929.8
2023-05-23T19:31:03.504Z,928.2
2023-05-23T19:36:12.675Z,938.9
2023-05-23T19:37:56.062Z,942.4
2023-05-23T19:39:39.594Z,943.6
2023-05-23T19:41:22.819Z,942.3
2023-05-23T19:43:06.337Z,944.8
2023-05-23T19:44:49.690Z,946.5
2023-05-23T19:46:33.085Z,942.7
2023-05-23T19:51:42.337Z,958.7
2023-05-23T19:53:25.705Z,960.8
2023-05-23T19:55:09.081Z,957.8
2023-05-23T19:56:52.468Z,958.1
2023-05-23T19:58:35.889Z,964.5
2023-05-23T20:00:19.320Z,970.3
2023-05-23T20:02:02.745Z,973.8
2023-05-23T20:03:46.092Z,974.4
2023-05-23T20:05:29.745Z,978.8
2023-05-23T20:07:13.207Z,982.4
2023-05-23T20:08:56.533Z,986.1
2023-05-23T20:10:39.919Z,986.4
2023-05-23T20:12:23.327Z,988.7
2023-05-23T20:14:06.740Z,993.3
2023-05-23T20:15:50.118Z,998.5
2023-05-23T20:17:33.500Z,1002.7
2023-05-23T20:19:17.301Z,1012.3
2023-05-23T20:21:00.614Z,1021.7
2023-05-23T20:22:44.053Z,1027.4
2023-05-23T20:24:27.468Z,1033.3
2023-05-23T20:26:10.804Z,1035.6
2023-05-23T20:27:54.206Z,1038.1
2023-05-23T20:29:37.639Z,1039.3
2023-05-23T20:31:21.148Z,1042.2
2023-05-23T20:33:04.712Z,1048.7
2023-05-23T20:34:48.087Z,1051.3
2023-05-23T20:36:31.559Z,1054.1
2023-05-23T20:38:14.889Z,1054
2023-05-23T20:39:58.361Z,1055.2
2023-05-23T20:41:41.765Z,1065
2023-05-23T20:43:25.092Z,1067.2
2023-05-23T20:45:08.493Z,1066.5
2023-05-23T20:46:52.161Z,1067.9
2023-05-23T20:48:35.565Z,1072
2023-05-23T20:50:18.955Z,1075.2
2023-05-23T20:52:02.385Z,1079
2023-05-23T20:53:45.849Z,1082
2023-05-23T20:55:29.178Z,1083.2
2023-05-23T20:57:12.623Z,1082
2023-05-23T21:02:21.784Z,1076.8
2023-05-23T21:04:05.194Z,1083.8
2023-05-23T21:05:48.625Z,1087.2
2023-05-23T21:07:31.974Z,1090.6
2023-05-23T21:09:15.366Z,1094.8
2023-05-23T21:10:58.814Z,1098.2
2023-05-23T21:12:42.161Z,1100.8
2023-05-23T21:16:08.644Z,1100.8
2023-05-23T21:17:52.045Z,1101.5
2023-05-23T21:19:35.460Z,1102.6
2023-05-23T21:21:18.901Z,1105
2023-05-23T21:23:02.282Z,1102.7
2023-05-23T21:24:45.633Z,1099.7
2023-05-23T21:26:29.001Z,1099.7
2023-05-23T21:31:38.264Z,1100.8
2023-05-23T21:33:21.654Z,1102.1
2023-05-23T21:35:05.072Z,1102.2
2023-05-23T21:36:48.616Z,1105.1
2023-05-23T21:38:32.023Z,1108.6
2023-05-23T21:40:15.338Z,1111.5
2023-05-23T21:41:58.639Z,1110.4
2023-05-23T21:47:07.868Z,1111.7
2023-05-23T21:48:51.273Z,1110.4
2023-05-23T21:50:34.668Z,1108.2
2023-05-23T21:52:18.099Z,1104.1
2023-05-23T21:54:01.462Z,1103.5
2023-05-23T21:55:44.896Z,1105.1
2023-05-23T21:57:28.246Z,1104.6
2023-05-23T22:02:37.485Z,1100.2
2023-05-23T22:04:20.888Z,1102.3
2023-05-23T22:06:04.291Z,1104.2
2023-05-23T22:07:47.674Z,1103.1
2023-05-23T22:09:31.109Z,1104.7
2023-05-23T22:11:14.556Z,1105.6
2023-05-23T22:12:57.888Z,1103.4
2023-05-23T22:14:41.259Z,1103.5
2023-05-23T22:16:24.979Z,1107.6
2023-05-23T22:18:08.361Z,1105.4
2023-05-23T22:19:51.841Z,1104
2023-05-23T22:21:35.247Z,1101.5
2023-05-23T22:23:18.571Z,1102.7
2023-05-23T22:25:01.964Z,1105
2023-05-23T22:26:45.340Z,1105
2023-05-23T22:28:28.789Z,1107.6
2023-05-23T22:31:55.212Z,1103.4
2023-05-23T22:33:38.608Z,1101.1
2023-05-23T22:35:22.085Z,1097.2
2023-05-23T22:37:05.399Z,1098.6
2023-05-23T22:38:48.806Z,1098.5
2023-05-23T22:40:32.173Z,1096.7
2023-05-23T22:42:15.599Z,1094.2
2023-05-23T22:43:59.055Z,1097
2023-05-23T22:45:42.701Z,1097.3
2023-05-23T22:47:26.075Z,1099.1
2023-05-23T22:49:09.518Z,1095.1
2023-05-23T22:50:52.885Z,1092.3
2023-05-23T22:52:36.280Z,1091.1
2023-05-23T22:54:19.689Z,1095.4
2023-05-23T22:56:03.067Z,1098.2
2023-05-23T22:57:46.534Z,1101.8
2023-05-23T23:01:12.945Z,1096.9
2023-05-23T23:02:56.331Z,1094.4
2023-05-23T23:04:39.737Z,1094
2023-05-23T23:06:23.140Z,1087.8
2023-05-23T23:08:06.555Z,1079.7
2023-05-23T23:09:49.907Z,1071
2023-05-23T23:11:33.318Z,1060.1
2023-05-23T23:13:16.707Z,1054.3
2023-05-23T23:15:00.435Z,1049.9
2023-05-23T23:16:43.793Z,1045.3
2023-05-23T23:18:27.213Z,1040.5
2023-05-23T23:20:10.618Z,1037.2
2023-05-23T23:21:53.999Z,1034.7
2023-05-23T23:23:37.407Z,1031.7
2023-05-23T23:25:20.807Z,1028.7
2023-05-23T23:30:30.064Z,1014.6
2023-05-23T23:32:13.437Z,1008.3
2023-05-23T23:33:56.835Z,1003.8
2023-05-23T23:35:40.234Z,996.6
2023-05-23T23:37:23.616Z,993.5
2023-05-23T23:39:07.017Z,988.4
2023-05-23T23:40:50.421Z,985.1
2023-05-23T23:45:59.655Z,975.2
2023-05-23T23:47:43.061Z,972.5
2023-05-23T23:49:26.442Z,974.4
2023-05-23T23:51:09.834Z,970.8
2023-05-23T23:52:53.237Z,968.7
2023-05-23T23:54:36.649Z,968.3
2023-05-23T23:56:20.031Z,965.6
